Mediterranean Sea — WDG229 — position and weather

sailwx.info

Track history (hours):
 
Tides and Currents Weather Stations Pressure Air Temp Water Temp Dewpoint Dewpoint Depression Visibility Wind Speed Wind Dir Waves Ship Positions

Mediterranean Sea

Last reported at 2014-Oct-21 12:11 UTC. Time now 2014-Oct-23 08:40 UTC.
Position N 41°31' W 070°48'.

Length 33 m; draft 6 m.

Type: Wing in ground effect craft. MMSI: 367010390.

Date/timePositionNaut miles runAvg speedWind from/ knotsBaromVisibWave heightAir tempDewpointWater temp
2014-Oct-21 12:11N 41°31' W 070°48'1 0.6
2014-Oct-21 11:25N 41°31' W 070°48'0 0.4
2014-Oct-21 10:33N 41°31' W 070°48'12 6.2
2014-Oct-21 08:34N 41°25' W 071°03'8 6.7
2014-Oct-21 07:18N 41°21' W 071°13'5 6.9
2014-Oct-21 06:34N 41°18' W 071°19'7 6.8
2014-Oct-21 05:34N 41°18' W 071°28'7 7.5
2014-Oct-21 04:34N 41°18' W 071°38'7 7.4
2014-Oct-21 03:33N 41°16' W 071°47'7 7.1
2014-Oct-21 02:34N 41°14' W 071°56'6 6.3
2014-Oct-21 01:34N 41°15' W 072°05'5 5.4
2014-Oct-21 00:33N 41°14' W 072°12'6 5.5
2014-Oct-20 23:34N 41°12' W 072°19'6 5.6
2014-Oct-20 22:34N 41°09' W 072°25'6 5.9
2014-Oct-20 21:33N 41°09' W 072°33'6 6.1
2014-Oct-20 20:34N 41°07' W 072°41'7 6.9
2014-Oct-20 19:33N 41°06' W 072°50'7 7.1
2014-Oct-20 18:33N 41°04' W 072°59'7 7.3
2014-Oct-20 17:33N 41°02' W 073°08'7 7.2
2014-Oct-20 16:33N 41°01' W 073°18'8 7.3
2014-Oct-20 15:29N 40°59' W 073°28'8 6.7
2014-Oct-20 14:21N 40°56' W 073°37'3 3.2
2014-Oct-20 13:31N 40°54' W 073°40'5 4.7
2014-Oct-20 12:28N 40°51' W 073°45'6 5.9
2014-Oct-20 11:31N 40°48' W 073°51'6 6.6
2014-Oct-20 10:33N 40°45' W 073°58'6 6.1
2014-Oct-20 09:33N 40°39' W 074°03'0 0.1
2014-Oct-20 08:30N 40°39' W 074°03'0 0.2
2014-Oct-20 07:33N 40°39' W 074°03'1 1.5
2014-Oct-20 06:34N 40°39' W 074°05'5 5.2
2014-Oct-20 05:33N 40°38' W 074°12'1 0.1
2014-Oct-19 20:24N 40°37' W 074°12'2 1.9
2014-Oct-19 19:13N 40°39' W 074°10'0 0.0
2014-Oct-19 18:28N 40°39' W 074°10'0 0.0
2014-Oct-19 17:31N 40°39' W 074°10'0 0.0
2014-Oct-19 16:31N 40°39' W 074°10'0 0.0
2014-Oct-19 15:31N 40°39' W 074°10'0 0.3
2014-Oct-19 14:33N 40°39' W 074°10'1 0.9
2014-Oct-19 13:33N 40°38' W 074°09'2 1.8
2014-Oct-19 12:32N 40°39' W 074°07'0 0.0
2014-Oct-19 11:17N 40°39' W 074°07'0 0.0
2014-Oct-19 10:29N 40°39' W 074°07'5 0.3
2014-Oct-18 17:18N 40°36' W 074°12'5 6.3
2014-Oct-18 16:29N 40°39' W 074°06'8 8.9
2014-Oct-18 15:33N 40°44' W 073°58'18 9.0
2014-Oct-18 13:33N 40°55' W 073°39'2 2.3
2014-Oct-18 12:34N 40°56' W 073°36'10 9.7
2014-Oct-18 11:34N 41°00' W 073°25'10 9.8
2014-Oct-18 10:33N 41°02' W 073°12'1010.0
2014-Oct-18 09:33N 41°04' W 072°59'1010.1
2014-Oct-18 08:33N 41°06' W 072°46'1010.0
2014-Oct-18 07:33N 41°08' W 072°33'10 9.6
2014-Oct-18 06:34N 41°11' W 072°21'9 8.6
2014-Oct-18 05:34N 41°14' W 072°10'8 7.7
2014-Oct-18 04:34N 41°14' W 071°60'8 8.0
2014-Oct-18 03:33N 41°16' W 071°49'8 8.4
2014-Oct-18 02:34N 41°17' W 071°38'9 8.5
2014-Oct-18 01:34N 41°17' W 071°27'8 8.5
2014-Oct-18 00:34N 41°20' W 071°16'9 8.6
2014-Oct-17 23:33N 41°24' W 071°06'10 7.5
2014-Oct-17 22:13N 41°29' W 070°55'6 9.1
2014-Oct-17 21:33N 41°32' W 070°48'  
2014-Oct-13 15:27N 42°41' W 070°21'6 6.2
2014-Oct-13 14:33N 42°37' W 070°26'25 5.9
2014-Oct-13 10:19N 42°12' W 070°32'1 1.8
2014-Oct-13 09:31N 42°11' W 070°31'16 7.3
2014-Oct-13 07:24N 41°56' W 070°27'8 6.6
2014-Oct-13 06:10N 41°48' W 070°28'24 6.1
2014-Oct-13 02:14N 41°30' W 070°50'2 3.1
2014-Oct-13 01:29N 41°30' W 070°53'15 5.1
2014-Oct-12 22:31N 41°22' W 071°10'4 3.8
2014-Oct-12 21:33N 41°20' W 071°15'4 3.9
2014-Oct-12 20:33N 41°18' W 071°19'4 3.8
2014-Oct-12 19:34N 41°18' W 071°24'4 4.0
2014-Oct-12 18:34N 41°18' W 071°29'4 4.2
2014-Oct-12 17:34N 41°18' W 071°35'4 4.3
2014-Oct-12 16:34N 41°17' W 071°41'5 4.6
2014-Oct-12 15:34N 41°16' W 071°47'5 4.8
2014-Oct-12 14:33N 41°15' W 071°53'5 5.2
2014-Oct-12 13:34N 41°14' W 071°60'6 5.8
2014-Oct-12 12:34N 41°14' W 072°07'3 3.1
2014-Oct-12 11:34N 41°14' W 072°11'2 2.3
2014-Oct-12 10:34N 41°13' W 072°14'7 6.8
2014-Oct-12 09:34N 41°10' W 072°22'9 9.0
2014-Oct-12 08:34N 41°07' W 072°34'8 8.2
2014-Oct-12 07:34N 41°06' W 072°44'8 7.6
2014-Oct-12 06:34N 41°04' W 072°54'7 7.2
2014-Oct-12 05:33N 41°02' W 073°03'7 6.8
2014-Oct-12 04:33N 41°01' W 073°12'7 6.8
2014-Oct-12 03:34N 41°00' W 073°21'6 6.2
2014-Oct-12 02:33N 40°58' W 073°29'7 7.0
2014-Oct-12 01:33N 40°55' W 073°37'7 7.3
2014-Oct-12 00:33N 40°51' W 073°45'7 6.6
2014-Oct-11 23:33N 40°48' W 073°53'6 6.0
2014-Oct-11 22:34N 40°43' W 073°58'5 5.0
2014-Oct-11 21:34N 40°40' W 074°03'6 5.8
2014-Oct-11 20:34N 40°38' W 074°10'5 5.4
2014-Oct-11 19:34N 40°39' W 074°03'0 0.4
2014-Oct-11 18:34N 40°40' W 074°03'0 0.0
2014-Oct-11 17:34N 40°40' W 074°03'0 0.2
2014-Oct-11 16:34N 40°40' W 074°03'1 0.9
2014-Oct-11 15:33N 40°39' W 074°03'2 2.4
2014-Oct-11 14:33N 40°39' W 074°07'0 0.0
2014-Oct-11 13:33N 40°39' W 074°07'0 0.0
2014-Oct-11 12:33N 40°39' W 074°07'  
Track history (hours):
 
Tides and Currents Weather Stations Pressure Air Temp Water Temp Dewpoint Dewpoint Depression Visibility Wind Speed Wind Dir Waves Ship Positions

Mediterranean Sea

Last reported at 2014-Oct-21 12:11 UTC. Time now 2014-Oct-23 08:40 UTC.
Position N 41°31' W 070°48'.

Length 33 m; draft 6 m.

Type: Wing in ground effect craft. MMSI: 367010390.

Date/timePositionNaut miles runAvg speedWind from/ knotsBaromVisibWave heightAir tempDewpointWater temp
2014-Oct-21 12:11N 41°31' W 070°48'1 0.6
2014-Oct-21 11:25N 41°31' W 070°48'0 0.4
2014-Oct-21 10:33N 41°31' W 070°48'12 6.2
2014-Oct-21 08:34N 41°25' W 071°03'8 6.7
2014-Oct-21 07:18N 41°21' W 071°13'5 6.9
2014-Oct-21 06:34N 41°18' W 071°19'7 6.8
2014-Oct-21 05:34N 41°18' W 071°28'7 7.5
2014-Oct-21 04:34N 41°18' W 071°38'7 7.4
2014-Oct-21 03:33N 41°16' W 071°47'7 7.1
2014-Oct-21 02:34N 41°14' W 071°56'6 6.3
2014-Oct-21 01:34N 41°15' W 072°05'5 5.4
2014-Oct-21 00:33N 41°14' W 072°12'6 5.5
2014-Oct-20 23:34N 41°12' W 072°19'6 5.6
2014-Oct-20 22:34N 41°09' W 072°25'6 5.9
2014-Oct-20 21:33N 41°09' W 072°33'6 6.1
2014-Oct-20 20:34N 41°07' W 072°41'7 6.9
2014-Oct-20 19:33N 41°06' W 072°50'7 7.1
2014-Oct-20 18:33N 41°04' W 072°59'7 7.3
2014-Oct-20 17:33N 41°02' W 073°08'7 7.2
2014-Oct-20 16:33N 41°01' W 073°18'8 7.3
2014-Oct-20 15:29N 40°59' W 073°28'8 6.7
2014-Oct-20 14:21N 40°56' W 073°37'3 3.2
2014-Oct-20 13:31N 40°54' W 073°40'5 4.7
2014-Oct-20 12:28N 40°51' W 073°45'6 5.9
2014-Oct-20 11:31N 40°48' W 073°51'6 6.6
2014-Oct-20 10:33N 40°45' W 073°58'6 6.1
2014-Oct-20 09:33N 40°39' W 074°03'0 0.1
2014-Oct-20 08:30N 40°39' W 074°03'0 0.2
2014-Oct-20 07:33N 40°39' W 074°03'1 1.5
2014-Oct-20 06:34N 40°39' W 074°05'5 5.2
2014-Oct-20 05:33N 40°38' W 074°12'1 0.1
2014-Oct-19 20:24N 40°37' W 074°12'2 1.9
2014-Oct-19 19:13N 40°39' W 074°10'0 0.0
2014-Oct-19 18:28N 40°39' W 074°10'0 0.0
2014-Oct-19 17:31N 40°39' W 074°10'0 0.0
2014-Oct-19 16:31N 40°39' W 074°10'0 0.0
2014-Oct-19 15:31N 40°39' W 074°10'0 0.3
2014-Oct-19 14:33N 40°39' W 074°10'1 0.9
2014-Oct-19 13:33N 40°38' W 074°09'2 1.8
2014-Oct-19 12:32N 40°39' W 074°07'0 0.0
2014-Oct-19 11:17N 40°39' W 074°07'0 0.0
2014-Oct-19 10:29N 40°39' W 074°07'5 0.3
2014-Oct-18 17:18N 40°36' W 074°12'5 6.3
2014-Oct-18 16:29N 40°39' W 074°06'8 8.9
2014-Oct-18 15:33N 40°44' W 073°58'18 9.0
2014-Oct-18 13:33N 40°55' W 073°39'2 2.3
2014-Oct-18 12:34N 40°56' W 073°36'10 9.7
2014-Oct-18 11:34N 41°00' W 073°25'10 9.8
2014-Oct-18 10:33N 41°02' W 073°12'1010.0
2014-Oct-18 09:33N 41°04' W 072°59'1010.1
2014-Oct-18 08:33N 41°06' W 072°46'1010.0
2014-Oct-18 07:33N 41°08' W 072°33'10 9.6
2014-Oct-18 06:34N 41°11' W 072°21'9 8.6
2014-Oct-18 05:34N 41°14' W 072°10'8 7.7
2014-Oct-18 04:34N 41°14' W 071°60'8 8.0
2014-Oct-18 03:33N 41°16' W 071°49'8 8.4
2014-Oct-18 02:34N 41°17' W 071°38'9 8.5
2014-Oct-18 01:34N 41°17' W 071°27'8 8.5
2014-Oct-18 00:34N 41°20' W 071°16'9 8.6
2014-Oct-17 23:33N 41°24' W 071°06'10 7.5
2014-Oct-17 22:13N 41°29' W 070°55'6 9.1
2014-Oct-17 21:33N 41°32' W 070°48'  
2014-Oct-13 15:27N 42°41' W 070°21'6 6.2
2014-Oct-13 14:33N 42°37' W 070°26'25 5.9
2014-Oct-13 10:19N 42°12' W 070°32'1 1.8
2014-Oct-13 09:31N 42°11' W 070°31'16 7.3
2014-Oct-13 07:24N 41°56' W 070°27'8 6.6
2014-Oct-13 06:10N 41°48' W 070°28'24 6.1
2014-Oct-13 02:14N 41°30' W 070°50'2 3.1
2014-Oct-13 01:29N 41°30' W 070°53'15 5.1
2014-Oct-12 22:31N 41°22' W 071°10'4 3.8
2014-Oct-12 21:33N 41°20' W 071°15'4 3.9
2014-Oct-12 20:33N 41°18' W 071°19'4 3.8
2014-Oct-12 19:34N 41°18' W 071°24'4 4.0
2014-Oct-12 18:34N 41°18' W 071°29'4 4.2
2014-Oct-12 17:34N 41°18' W 071°35'4 4.3
2014-Oct-12 16:34N 41°17' W 071°41'5 4.6
2014-Oct-12 15:34N 41°16' W 071°47'5 4.8
2014-Oct-12 14:33N 41°15' W 071°53'5 5.2
2014-Oct-12 13:34N 41°14' W 071°60'6 5.8
2014-Oct-12 12:34N 41°14' W 072°07'3 3.1
2014-Oct-12 11:34N 41°14' W 072°11'2 2.3
2014-Oct-12 10:34N 41°13' W 072°14'7 6.8
2014-Oct-12 09:34N 41°10' W 072°22'9 9.0
2014-Oct-12 08:34N 41°07' W 072°34'8 8.2
2014-Oct-12 07:34N 41°06' W 072°44'8 7.6
2014-Oct-12 06:34N 41°04' W 072°54'7 7.2
2014-Oct-12 05:33N 41°02' W 073°03'7 6.8
2014-Oct-12 04:33N 41°01' W 073°12'7 6.8
2014-Oct-12 03:34N 41°00' W 073°21'6 6.2
2014-Oct-12 02:33N 40°58' W 073°29'7 7.0
2014-Oct-12 01:33N 40°55' W 073°37'7 7.3
2014-Oct-12 00:33N 40°51' W 073°45'7 6.6
2014-Oct-11 23:33N 40°48' W 073°53'6 6.0
2014-Oct-11 22:34N 40°43' W 073°58'5 5.0
2014-Oct-11 21:34N 40°40' W 074°03'6 5.8
2014-Oct-11 20:34N 40°38' W 074°10'5 5.4
2014-Oct-11 19:34N 40°39' W 074°03'0 0.4
2014-Oct-11 18:34N 40°40' W 074°03'0 0.0
2014-Oct-11 17:34N 40°40' W 074°03'0 0.2
2014-Oct-11 16:34N 40°40' W 074°03'1 0.9
2014-Oct-11 15:33N 40°39' W 074°03'2 2.4
2014-Oct-11 14:33N 40°39' W 074°07'0 0.0
2014-Oct-11 13:33N 40°39' W 074°07'0 0.0
2014-Oct-11 12:33N 40°39' W 074°07'  

Dump ship's entire track history